Have a Safe July 4th! 

Flight Track Log - Related Links

Times and Time Zones

All times are in EDT time to prevent confusion due to time zone crossing. See the UAL975 flight status page for this flight to view local times or setup timezone preferences in your user account.

Time Position Orientation Groundspeed Altitude Reporting Facility
EDT Latitude Longitude Course Direction KTS MPH feet Rate Location/Type
Mon 05:47:15 PM 38.9755 -77.4667 237° Southwest  Level FlightAware Approximate
Mon 05:48:15 PM 39.0855 -77.4855 190° South  Level FlightAware Approximate
Mon 05:48:30 PM 38.9500 -77.5167 334° Northwest 190 219 1,500  Level Potomac TRACON
Mon 05:50:37 PM 39.0833 -77.6000 360° North 288 331 6,300 2,453 Climbing Potomac TRACON
Mon 05:51:31 PM 39.1500 -77.6000 352° North 286 329 8,900 2,013 Climbing Potomac TRACON
Mon 05:53:06 PM 39.2839 -77.6242 329° Northwest 314 361 11,300 1,923 Climbing Washington Center
Mon 05:54:07 PM 39.3581 -77.6825 322° Northwest 346 398 13,900 2,281 Climbing Washington Center
Mon 05:55:07 PM 39.4336 -77.7600 298° West 341 392 15,900 339 Climbing Washington Center
Mon 06:02:15 PM 39.7725 -78.6991 298° West  Level FlightAware Approximate
Mon 06:03:15 PM 39.8234 -78.8335 298° West  Level FlightAware Approximate
Mon 06:04:15 PM 39.8611 -78.9758 298° West  Level FlightAware Approximate
Mon 06:05:15 PM 39.9015 -79.1177 298° West  Level FlightAware Approximate
Mon 06:06:15 PM 39.9662 -79.2436 298° West  Level FlightAware Approximate
Mon 06:07:15 PM 39.9852 -79.3777 298° West  Level FlightAware Approximate
Mon 06:08:15 PM 40.0444 -79.5048 298° West  Level FlightAware Approximate
Mon 06:09:15 PM 40.1111 -79.6292 298° West  Level FlightAware Approximate
Mon 06:10:15 PM 40.1776 -79.7538 298° West  Level FlightAware Approximate
Mon 06:11:15 PM 40.2440 -79.8786 297° West  Level FlightAware Approximate
Mon 06:12:15 PM 40.3102 -80.0037 297° West  Level FlightAware Approximate
Mon 06:13:15 PM 40.3644 -80.1347 297° West  Level FlightAware Approximate
Mon 06:14:15 PM 40.4289 -80.2616 297° West  Level FlightAware Approximate
Mon 06:15:15 PM 40.4965 -80.3847 297° West  Level FlightAware Approximate
Mon 06:16:15 PM 40.5606 -80.5122 296° West  Level FlightAware Approximate
Mon 06:17:15 PM 40.6150 -80.6466 296° West  Level FlightAware Approximate
Mon 06:18:15 PM 40.6832 -80.7689 296° West  Level FlightAware Approximate
Mon 06:19:15 PM 40.7469 -80.8970 296° West  Level FlightAware Approximate
Mon 06:20:15 PM 40.8105 -81.0254 296° West  Level FlightAware Approximate
Mon 06:21:15 PM 40.8739 -81.1541 295° West  Level FlightAware Approximate
Mon 06:22:15 PM 40.9359 -81.2841 295° West  Level FlightAware Approximate
Mon 06:23:15 PM 40.9978 -81.4143 295° West  Level FlightAware Approximate
Mon 06:24:15 PM 41.0593 -81.5444 295° West  Level FlightAware Approximate
Mon 06:25:15 PM 41.1200 -81.6751 294° West  Level FlightAware Approximate
Mon 06:26:15 PM 41.1774 -81.8087 294° West  Level FlightAware Approximate
Mon 06:27:15 PM 41.2346 -81.9426 294° West  Level FlightAware Approximate
Mon 06:28:15 PM 41.2916 -82.0767 294° West  Level FlightAware Approximate
Mon 06:29:15 PM 41.3702 -82.1883 293° West  Level FlightAware Approximate
Mon 06:30:15 PM 41.4259 -82.3231 293° West  Level FlightAware Approximate
Mon 06:31:15 PM 41.4814 -82.4581 293° West  Level FlightAware Approximate
Mon 06:32:15 PM 41.5626 -82.5536 292° West  Level FlightAware Approximate
Mon 06:33:15 PM 41.6105 -82.6940 292° West  Level FlightAware Approximate
Mon 06:34:15 PM 41.6967 -82.7967 291° West  Level FlightAware Approximate
Mon 06:35:15 PM 41.7618 -82.9233 290° West  Level FlightAware Approximate
Mon 06:36:15 PM 41.8070 -83.0653 290° West  Level FlightAware Approximate
Mon 06:37:15 PM 41.8875 -83.1712 289° West  Level FlightAware Approximate
Mon 06:38:15 PM 41.9263 -83.3167 289° West  Level FlightAware Approximate
Mon 06:39:15 PM 41.9650 -83.4624 289° West  Level FlightAware Approximate
Mon 06:40:15 PM 41.9983 -83.6106 289° West  Level FlightAware Approximate
Mon 06:41:15 PM 42.0314 -83.7589 289° West  Level FlightAware Approximate
Mon 06:42:15 PM 42.0644 -83.9073 289° West  Level FlightAware Approximate
Mon 06:43:15 PM 42.0971 -84.0560 289° West  Level FlightAware Approximate
Mon 06:44:15 PM 42.1297 -84.2047 289° West  Level FlightAware Approximate
Mon 06:45:15 PM 42.1620 -84.3537 289° West  Level FlightAware Approximate
Mon 06:46:15 PM 42.1942 -84.5027 289° West  Level FlightAware Approximate
Mon 06:47:15 PM 42.2263 -84.6524 289° West  Level FlightAware Approximate
Mon 06:48:15 PM 42.2581 -84.8023 289° West  Level FlightAware Approximate
Mon 06:49:15 PM 42.2899 -84.9528 289° West  Level FlightAware Approximate
Mon 06:50:15 PM 42.3215 -85.1034 289° West  Level FlightAware Approximate
Mon 06:51:15 PM 42.3508 -85.2550 289° West  Level FlightAware Approximate
Mon 06:52:15 PM 42.3799 -85.4067 290° West  Level FlightAware Approximate
Mon 06:53:15 PM 42.4065 -85.5593 290° West  Level FlightAware Approximate
Mon 06:54:15 PM 42.4329 -85.7120 290° West  Level FlightAware Approximate
Mon 06:55:15 PM 42.4591 -85.8649 291° West  Level FlightAware Approximate
Mon 06:56:15 PM 42.4819 -86.0188 292° West  Level FlightAware Approximate
Mon 06:57:15 PM 42.5045 -86.1729 293° West  Level FlightAware Approximate
Mon 06:58:15 PM 42.5268 -86.3270 294° West  Level FlightAware Approximate
Mon 06:59:15 PM 42.5489 -86.4813 295° West  Level FlightAware Approximate
Mon 07:00:15 PM 42.5709 -86.6357 297° West  Level FlightAware Approximate
Mon 07:01:15 PM 42.5921 -86.7903 299° West  Level FlightAware Approximate
Mon 07:02:15 PM 42.6131 -86.9450 303° West  Level FlightAware Approximate
Mon 07:03:15 PM 42.6290 -87.1009 308° West  Level FlightAware Approximate
Mon 07:04:15 PM 42.6446 -87.2568 316° Northwest  Level FlightAware Approximate
Mon 07:05:15 PM 42.6600 -87.4129 328° Northwest  Level FlightAware Approximate
Mon 07:05:16 PM 42.9467 -87.6594 290° West 424 488 38,000  Level Chicago Center
Mon 07:08:16 PM 43.0692 -88.1136 278° West 424 488 38,000  Level Chicago Center
Mon 07:11:16 PM 43.1211 -88.6047 272° West 423 487 38,000  Level Chicago Center
Mon 07:12:16 PM 43.1242 -88.7694 271° West 423 487 38,000  Level Chicago Center
Mon 07:13:16 PM 43.1269 -88.9317 270° West 423 487 38,000  Level Chicago Center
Mon 07:14:16 PM 43.1275 -89.0967 271° West 428 493 38,000  Level Chicago Center
Mon 07:15:16 PM 43.1300 -89.2589 271° West 428 493 38,000  Level Chicago Center
Mon 07:16:16 PM 43.1319 -89.4239 270° West 433 498 38,000  Level Chicago Center
Mon 07:17:16 PM 43.1317 -89.5858 271° West 433 498 38,000  Level Chicago Center
Mon 07:18:16 PM 43.1333 -89.7539 270° West 438 504 38,000  Level Chicago Center
Mon 07:19:16 PM 43.1328 -89.9158 271° West 438 504 38,000  Level Chicago Center
Mon 07:20:16 PM 43.1339 -90.0839 270° West 438 504 38,000  Level Chicago Center
Mon 07:21:16 PM 43.1347 -90.2517 272° West 438 504 38,000  Level Chicago Center
Mon 07:22:16 PM 43.1378 -90.3967 269° West 438 504 38,000  Level Chicago Center
Mon 07:23:16 PM 43.1361 -90.5675 270° West 438 504 38,000  Level Chicago Center
Mon 07:25:19 PM 43.1342 -90.9114 269° West 441 507 38,000  Level Minneapolis Center
Mon 07:26:19 PM 43.1317 -91.0794 270° West 446 513 38,000  Level Minneapolis Center
Mon 07:28:19 PM 43.1303 -91.4347 268° West 446 513 38,000  Level Minneapolis Center
Mon 07:29:18 PM 43.1269 -91.6025 270° West 441 507 38,000  Level Minneapolis Center
Mon 07:30:19 PM 43.1275 -91.7703 268° West 441 507 38,000  Level Minneapolis Center
Mon 07:31:18 PM 43.1236 -91.9411 268° West 441 507 38,000  Level Minneapolis Center
Mon 07:32:19 PM 43.1194 -92.1031 268° West 441 507 38,000  Level Minneapolis Center
Mon 07:33:18 PM 43.1153 -92.2736 270° West 441 507 38,000  Level Minneapolis Center
Mon 07:34:18 PM 43.1144 -92.4244 268° West 441 507 38,000  Level Minneapolis Center
Mon 07:35:19 PM 43.1097 -92.5864 269° West 441 507 38,000  Level Minneapolis Center
Mon 07:36:18 PM 43.1067 -92.7542 268° West 441 507 38,000  Level Minneapolis Center
Mon 07:37:18 PM 43.1014 -92.9189 268° West 441 507 38,000  Level Minneapolis Center
Mon 07:38:19 PM 43.0978 -93.0808 268° West 441 507 38,000  Level Minneapolis Center
Mon 07:39:19 PM 43.0939 -93.2486 266° West 441 507 38,000  Level Minneapolis Center
Mon 07:40:19 PM 43.0858 -93.4106 261° West 441 507 38,000  Level Minneapolis Center
Mon 07:41:18 PM 43.0669 -93.5808 263° West 441 507 38,000  Level Minneapolis Center
Mon 07:42:19 PM 43.0522 -93.7425 262° West 441 507 38,000  Level Minneapolis Center
Mon 07:43:18 PM 43.0350 -93.9042 263° West 441 507 38,000  Level Minneapolis Center
Mon 07:44:19 PM 43.0194 -94.0717 261° West 448 516 38,000  Level Minneapolis Center
Mon 07:45:19 PM 42.9997 -94.2358 263° West 443 510 38,000  Level Minneapolis Center
Mon 07:46:19 PM 42.9858 -94.3972 260° West 443 510 38,000  Level Minneapolis Center
Mon 07:47:18 PM 42.9636 -94.5614 266° West 443 510 38,000  Level Minneapolis Center
Mon 07:48:19 PM 42.9553 -94.7397 261° West 432 497 38,000  Level Minneapolis Center
Mon 07:49:19 PM 42.9367 -94.9008 263° West 437 503 38,000  Level Minneapolis Center
Mon 07:50:19 PM 42.9242 -95.0450 261° West 437 503 38,000  Level Minneapolis Center
Mon 07:51:19 PM 42.9050 -95.2117 262° West 444 511 38,000  Level Minneapolis Center
Mon 07:52:19 PM 42.8878 -95.3697 262° West 444 511 38,000  Level Minneapolis Center
Mon 07:53:19 PM 42.8703 -95.5361 261° West 444 511 38,000  Level Minneapolis Center
Mon 07:54:18 PM 42.8503 -95.7025 261° West 444 511 38,000  Level Minneapolis Center
Mon 07:55:19 PM 42.8322 -95.8658 260° West 444 511 38,000  Level Minneapolis Center
Mon 07:56:19 PM 42.8094 -96.0458 261° West 444 511 38,000  Level Minneapolis Center
Mon 07:57:18 PM 42.7908 -96.2089 261° West 450 518 38,000  Level Minneapolis Center
Mon 07:58:18 PM 42.7719 -96.3750 260° West 444 511 38,000  Level Minneapolis Center
Mon 07:59:18 PM 42.7508 -96.5378 260° West 449 517 38,000  Level Minneapolis Center
Mon 08:00:19 PM 42.7294 -96.7006 262° West 444 511 38,000  Level Minneapolis Center
Mon 08:01:19 PM 42.7144 -96.8522 260° West 450 518 38,000  Level Minneapolis Center
Mon 08:02:19 PM 42.6925 -97.0203 261° West 450 518 38,000  Level Minneapolis Center
Mon 08:03:19 PM 42.6697 -97.2081 260° West 461 531 38,000  Level Minneapolis Center
Mon 08:04:18 PM 42.6492 -97.3733 259° West 461 531 38,000  Level Minneapolis Center
Mon 08:05:18 PM 42.6244 -97.5381 262° West 461 531 38,000  Level Minneapolis Center
Mon 08:06:19 PM 42.6056 -97.7086 262° West 461 531 38,000  Level Minneapolis Center
Mon 08:07:19 PM 42.5892 -97.8597 259° West 461 531 38,000  Level Minneapolis Center
Mon 08:08:19 PM 42.5658 -98.0242 259° West 461 531 38,000  Level Minneapolis Center
Mon 08:09:18 PM 42.5419 -98.1914 260° West 461 531 38,000  Level Minneapolis Center
Mon 08:10:19 PM 42.5203 -98.3558 260° West 461 531 38,000  Level Minneapolis Center
Mon 08:11:18 PM 42.4978 -98.5286 258° West 461 531 38,000  Level Minneapolis Center
Mon 08:12:54 PM 42.4556 -98.8028 257° West 466 536 38,000  Level Denver Center
Mon 08:13:54 PM 42.4269 -98.9697 257° West 461 531 38,000  Level Denver Center
Mon 08:14:54 PM 42.3997 -99.1333 257° West 461 531 38,000  Level Denver Center
Mon 08:15:54 PM 42.3725 -99.2967 257° West 461 531 38,000  Level Denver Center
Mon 08:16:54 PM 42.3450 -99.4631 257° West 461 531 38,000  Level Denver Center
Mon 08:17:54 PM 42.3175 -99.6289 256° West 461 531 38,000  Level Denver Center
Mon 08:18:54 PM 42.2875 -99.7953 257° West 467 537 38,000  Level Denver Center
Mon 08:19:54 PM 42.2625 -99.9439 257° West 461 531 38,000  Level Denver Center
Mon 08:20:54 PM 42.2339 -100.1067 257° West 461 531 38,000  Level Denver Center
Mon 08:21:54 PM 42.2019 -100.2867 257° West 461 531 38,000  Level Denver Center
Mon 08:22:54 PM 42.1731 -100.4519 256° West 461 531 38,000  Level Denver Center
Mon 08:23:54 PM 42.1453 -100.6003 257° West 461 531 38,000  Level Denver Center
Mon 08:24:54 PM 42.1147 -100.7822 256° West 461 531 38,000  Level Denver Center
Mon 08:25:54 PM 42.0850 -100.9472 256° West 456 525 38,000  Level Denver Center
Mon 08:26:54 PM 42.0550 -101.1067 256° West 456 525 38,000  Level Denver Center
Mon 08:27:54 PM 42.0264 -101.2572 256° West 461 531 38,000  Level Denver Center
Mon 08:28:54 PM 41.9925 -101.4361 255° West 456 525 38,000  Level Denver Center
Mon 08:29:53 PM 41.9617 -101.5919 256° West 456 525 38,000  Level Denver Center
Mon 08:30:53 PM 41.9344 -101.7394 256° West 456 525 38,000  Level Denver Center
Mon 08:31:54 PM 41.9053 -101.8950 255° West 444 511 38,000  Level Denver Center
Mon 08:32:53 PM 41.8703 -102.0647 255° West 439 505 38,000  Level Denver Center
Mon 08:33:53 PM 41.8386 -102.2231 258° West 439 505 38,000  Level Denver Center
Mon 08:34:53 PM 41.8164 -102.3583 255° West 426 490 38,000  Level Denver Center
Mon 08:35:53 PM 41.7825 -102.5303 255° West 426 490 38,000  Level Denver Center
Mon 08:36:53 PM 41.7503 -102.6856 255° West 433 498 38,000  Level Denver Center
Mon 08:37:53 PM 41.7178 -102.8458 256° West 438 504 38,000  Level Denver Center
Mon 08:38:53 PM 41.6928 -102.9836 254° West 436 502 38,000  Level Denver Center
Mon 08:39:53 PM 41.6581 -103.1494 254° West 424 488 38,000  Level Denver Center
Mon 08:40:53 PM 41.6269 -103.2983 255° West 424 488 38,000  Level Denver Center
Mon 08:41:53 PM 41.5956 -103.4497 254° West 424 488 38,000  Level Denver Center
Mon 08:42:53 PM 41.5675 -103.5842 254° West 424 488 38,000  Level Denver Center
Mon 08:43:53 PM 41.5319 -103.7522 254° West 429 494 38,000  Level Denver Center
Mon 08:44:53 PM 41.4981 -103.9064 254° West 429 494 38,000  Level Denver Center
Mon 08:45:54 PM 41.4658 -104.0600 255° West 429 494 38,000  Level Denver Center
Mon 08:46:53 PM 41.4375 -104.2022 253° West 438 504 38,000  Level Denver Center
Mon 08:47:53 PM 41.4028 -104.3531 254° West 438 504 38,000  Level Denver Center
Mon 08:48:53 PM 41.3681 -104.5172 255° West 438 504 38,000  Level Denver Center
Mon 08:49:53 PM 41.3372 -104.6703 253° West 438 504 38,000  Level Denver Center
Mon 08:50:53 PM 41.3058 -104.8039 255° West 432 497 38,000  Level Denver Center
Mon 08:51:53 PM 41.2747 -104.9594 253° West 427 491 38,000  Level Denver Center
Mon 08:52:53 PM 41.2372 -105.1258 253° West 427 491 38,000  Level Denver Center
Mon 08:53:53 PM 41.2014 -105.2783 254° West 427 491 38,000  Level Denver Center
Mon 08:54:53 PM 41.1714 -105.4142 253° West 427 491 38,000  Level Denver Center
Mon 08:55:53 PM 41.1372 -105.5664 254° West 427 491 38,000  Level Denver Center
Mon 08:56:53 PM 41.1008 -105.7350 252° West 427 491 38,000  Level Denver Center
Mon 08:57:53 PM 41.0642 -105.8867 254° West 432 497 38,000  Level Denver Center
Mon 08:58:54 PM 41.0356 -106.0219 253° West 437 503 38,000  Level Denver Center
Mon 08:59:53 PM 40.9986 -106.1844 253° West 423 487 38,000  Level Denver Center
Mon 09:00:54 PM 40.9633 -106.3386 252° West 423 487 38,000  Level Denver Center
Mon 09:01:54 PM 40.9258 -106.4900 252° West 429 494 38,000  Level Denver Center
Mon 09:02:53 PM 40.8925 -106.6272 253° West 434 499 38,000  Level Denver Center
Mon 09:03:53 PM 40.8547 -106.7892 252° West 428 493 38,000  Level Denver Center
Mon 09:04:53 PM 40.8167 -106.9397 252° West 428 493 38,000  Level Denver Center
Mon 09:05:53 PM 40.7803 -107.0903 250° West 428 493 38,000  Level Denver Center
Mon 09:06:53 PM 40.7442 -107.2244 253° West 433 498 38,000  Level Denver Center
Mon 09:07:53 PM 40.7033 -107.3964 251° West 445 512 38,000  Level Denver Center
Mon 09:08:53 PM 40.6644 -107.5492 253° West 445 512 38,000  Level Denver Center
Mon 09:09:54 PM 40.6275 -107.7044 251° West 445 512 38,000  Level Denver Center
Mon 09:10:53 PM 40.5925 -107.8406 252° West 439 505 38,000  Level Denver Center
Mon 09:11:53 PM 40.5508 -108.0064 252° West 446 513 38,000  Level Denver Center
Mon 09:12:53 PM 40.5133 -108.1558 251° West 441 507 38,000  Level Denver Center
Mon 09:13:53 PM 40.4778 -108.2914 252° West 441 507 38,000  Level Denver Center
Mon 09:14:48 PM 40.4397 -108.4414 251° West 428 493 38,000  Level Salt Lake Center
Mon 09:15:50 PM 40.4025 -108.5861 251° West 433 498 38,000  Level Salt Lake Center
Mon 09:16:51 PM 40.3597 -108.7517 251° West 430 495 38,000  Level Salt Lake Center
Mon 09:17:53 PM 40.3244 -108.8883 251° West 427 491 38,000  Level Salt Lake Center
Mon 09:18:54 PM 40.2811 -109.0519 251° West 427 491 38,000  Level Salt Lake Center
Mon 09:19:56 PM 40.2431 -109.1936 251° West 430 495 38,000  Level Salt Lake Center
Mon 09:20:57 PM 40.2056 -109.3342 251° West 430 495 38,000  Level Salt Lake Center
Mon 09:21:59 PM 40.1619 -109.4981 251° West 430 495 38,000  Level Salt Lake Center
Mon 09:23:00 PM 40.1236 -109.6397 250° West 432 497 38,000  Level Salt Lake Center
Mon 09:24:02 PM 40.0783 -109.8050 251° West 434 499 38,000  Level Salt Lake Center
Mon 09:25:03 PM 40.0400 -109.9461 250° West 433 498 38,000  Level Salt Lake Center
Mon 09:26:04 PM 39.9950 -110.1100 250° West 431 496 38,000  Level Salt Lake Center
Mon 09:27:06 PM 39.9561 -110.2506 250° West 431 496 38,000  Level Salt Lake Center
Mon 09:28:07 PM 39.9175 -110.3911 250° West 431 496 38,000  Level Salt Lake Center
Mon 09:29:09 PM 39.8717 -110.5539 250° West 430 495 38,000  Level Salt Lake Center
Mon 09:30:10 PM 39.8328 -110.6928 250° West 429 494 38,000  Level Salt Lake Center
Mon 09:31:11 PM 39.7867 -110.8547 250° West 428 493 38,000  Level Salt Lake Center
Mon 09:32:13 PM 39.7475 -110.9939 250° West 429 494 38,000  Level Salt Lake Center
Mon 09:33:14 PM 39.7075 -111.1358 249° West 434 499 38,000  Level Salt Lake Center
Mon 09:34:16 PM 39.6617 -111.2928 249° West 434 499 38,000  Level Salt Lake Center
Mon 09:35:17 PM 39.6186 -111.4406 250° West 433 498 38,000  Level Salt Lake Center
Mon 09:36:19 PM 39.5769 -111.5878 249° West 432 497 38,000  Level Salt Lake Center
Mon 09:37:20 PM 39.5336 -111.7342 249° West 431 496 38,000  Level Salt Lake Center
Mon 09:38:21 PM 39.4906 -111.8797 249° West 430 495 38,000  Level Salt Lake Center
Mon 09:39:23 PM 39.4475 -112.0250 249° West 429 494 38,000  Level Salt Lake Center
Mon 09:40:25 PM 39.4047 -112.1706 249° West 429 494 38,000  Level Salt Lake Center
Mon 09:41:26 PM 39.3531 -112.3408 249° West 431 496 38,000  Level Salt Lake Center
Mon 09:42:28 PM 39.3092 -112.4856 254° West 430 495 38,000  Level Salt Lake Center
Mon 09:43:29 PM 39.2753 -112.6331 254° West 425 489 38,000  Level Salt Lake Center
Mon 09:44:31 PM 39.2453 -112.7642 254° West 420 483 38,000  Level Salt Lake Center
Mon 09:45:32 PM 39.2117 -112.9164 254° West 433 498 38,000  Level Salt Lake Center
Mon 09:46:34 PM 39.1775 -113.0678 253° West 433 498 38,000  Level Salt Lake Center
Mon 09:47:35 PM 39.1433 -113.2153 254° West 429 494 38,000 341 Level Salt Lake Center
Mon 09:48:37 PM 39.1094 -113.3675 254° West 432 497 38,700 871 Climbing Salt Lake Center
Mon 09:49:39 PM 39.0689 -113.5469 253° West 430 495 39,800 634 Climbing Salt Lake Center
Mon 09:50:40 PM 39.0350 -113.6928 253° West 424 488 40,000 98 Climbing Salt Lake Center
Mon 09:51:42 PM 39.0006 -113.8397 253° West 423 487 40,000  Level Salt Lake Center
Mon 09:52:43 PM 38.9661 -113.9878 253° West 426 490 40,000  Level Salt Lake Center
Mon 09:53:45 PM 38.9314 -114.1331 254° West 423 487 40,000  Level Salt Lake Center
Mon 09:54:47 PM 38.8983 -114.2764 253° West 417 480 40,000  Level Salt Lake Center
Mon 09:55:48 PM 38.8631 -114.4233 253° West 421 484 40,000  Level Salt Lake Center
Mon 09:56:50 PM 38.8286 -114.5678 253° West 420 483 40,000  Level Salt Lake Center
Mon 09:57:51 PM 38.7933 -114.7117 253° West 418 481 40,000  Level Salt Lake Center
Mon 09:58:53 PM 38.7586 -114.8572 252° West 419 482 40,000  Level Salt Lake Center
Mon 09:59:55 PM 38.7225 -115.0025 252° West 421 484 40,000  Level Salt Lake Center
Mon 10:00:56 PM 38.6861 -115.1481 252° West 422 486 40,000  Level Salt Lake Center
Mon 10:01:58 PM 38.6497 -115.2944 252° West 424 488 40,000  Level Salt Lake Center
Mon 10:02:59 PM 38.6100 -115.4525 253° West 425 489 40,000  Level Salt Lake Center
Mon 10:04:01 PM 38.5753 -115.5958 252° West 424 488 40,000  Level Salt Lake Center
Mon 10:05:03 PM 38.5414 -115.7300 252° West 399 459 40,000  Level Salt Lake Center
Mon 10:06:04 PM 38.5072 -115.8631 252° West 391 450 40,000  Level Salt Lake Center
Mon 10:07:06 PM 38.4728 -115.9956 252° West 393 452 40,000  Level Salt Lake Center
Mon 10:08:08 PM 38.4386 -116.1283 252° West 393 452 40,000  Level Salt Lake Center
Mon 10:09:09 PM 38.3972 -116.2897 252° West 398 458 40,000  Level Salt Lake Center
Mon 10:10:11 PM 38.3631 -116.4261 251° West 402 463 40,000  Level Salt Lake Center
Mon 10:11:13 PM 38.3269 -116.5597 252° West 400 460 40,000  Level Salt Lake Center
Mon 10:12:14 PM 38.2928 -116.6925 251° West 396 456 40,000  Level Salt Lake Center
Mon 10:13:16 PM 38.2572 -116.8272 252° West 400 460 40,000  Level Salt Lake Center
Mon 10:14:18 PM 38.2217 -116.9631 251° West 403 464 40,000  Level Salt Lake Center
Mon 10:15:19 PM 38.1858 -117.0989 252° West 406 467 40,000  Level Salt Lake Center
Mon 10:16:21 PM 38.1475 -117.2458 250° West 406 467 40,000  Level Salt Lake Center
Mon 10:17:23 PM 38.1067 -117.3919 251° West 402 463 40,000  Level Salt Lake Center
Mon 10:18:25 PM 38.0686 -117.5300 251° West 410 472 40,000  Level Salt Lake Center
Mon 10:19:26 PM 38.0317 -117.6675 253° West 412 474 40,000  Level Salt Lake Center
Mon 10:20:28 PM 37.9992 -117.8050 263° West 407 468 40,000  Level Salt Lake Center
Mon 10:21:30 PM 37.9817 -117.9764 263° West 408 470 40,000  Level Salt Lake Center
Mon 10:22:32 PM 37.9678 -118.1161 262° West 399 459 40,000  Level Salt Lake Center
Mon 10:23:33 PM 37.9528 -118.2542 263° West 397 457 40,000  Level Salt Lake Center
Mon 10:24:39 PM 37.9392 -118.4006 263° West 410 472 40,000  Level Oakland Center
Mon 10:25:39 PM 37.9253 -118.5381 261° West 410 472 40,000  Level Oakland Center
Mon 10:26:41 PM 37.9092 -118.6728 262° West 405 466 40,000  Level Oakland Center
Mon 10:27:51 PM 37.8914 -118.8367 264° West 405 466 40,000  Level Oakland Center
Mon 10:28:51 PM 37.8792 -118.9736 259° West 405 466 40,000  Level Oakland Center
Mon 10:29:51 PM 37.8567 -119.1164 262° West 390 449 40,000  Level Oakland Center
Mon 10:30:51 PM 37.8419 -119.2536 260° West 390 449 40,000  Level Oakland Center
Mon 10:31:51 PM 37.8231 -119.3933 261° West 396 456 40,000  Level Oakland Center
Mon 10:32:51 PM 37.8061 -119.5356 261° West 401 461 40,000  Level Oakland Center
Mon 10:33:51 PM 37.7892 -119.6753 263° West 411 473 40,000  Level Oakland Center
Mon 10:34:51 PM 37.7758 -119.8147 259° West 411 473 40,000 -350 Level Oakland Center
Mon 10:35:51 PM 37.7542 -119.9569 261° West 411 473 39,300 -1,750 Descending Oakland Center
Mon 10:36:51 PM 37.7367 -120.0989 261° West 411 473 36,500 -2,800 Descending Oakland Center
Mon 10:37:51 PM 37.7189 -120.2436 260° West 411 473 33,700 -2,250 Descending Oakland Center
Mon 10:38:51 PM 37.6989 -120.3881 261° West 411 473 32,000 -1,850 Descending Oakland Center
Mon 10:39:51 PM 37.6806 -120.5353 260° West 418 481 30,000 -2,000 Descending Oakland Center
Mon 10:40:51 PM 37.6603 -120.6850 261° West 429 494 28,000 -1,333 Descending Oakland Center
Mon 10:41:21 PM 37.6500 -120.7667 261° West 430 495 28,000 -1,143 Level Northern Cal TRACON
Mon 10:42:15 PM 37.6333 -120.9000 260° West 428 493 26,400 -2,147 Descending Northern Cal TRACON
Mon 10:43:10 PM 37.6167 -121.0167 224° Southwest 426 490 24,100 -3,130 Descending Northern Cal TRACON
Mon 10:44:10 PM 37.5333 -121.1167 213° Southwest 397 457 20,400 -3,429 Descending Northern Cal TRACON
Mon 10:45:16 PM 37.4333 -121.2000 260° West 386 444 16,900 -2,667 Descending Northern Cal TRACON
Mon 10:46:16 PM 37.4167 -121.3167 293° West 356 410 14,800 -2,200 Descending Northern Cal TRACON
Mon 10:47:16 PM 37.4500 -121.4167 302° West 333 383 12,500 -1,983 Descending Northern Cal TRACON
Mon 10:48:11 PM 37.5000 -121.5167 307° West 337 388 11,000 -783 Descending Northern Cal TRACON
Mon 10:49:11 PM 37.5500 -121.6000 258° West 276 318 11,000 -286 Level Northern Cal TRACON
Mon 10:50:17 PM 37.5333 -121.7000 253° West 240 276 10,400 -905 Descending Northern Cal TRACON
Mon 10:51:17 PM 37.5167 -121.7667 253° West 230 265 9,100 -1,043 Descending Northern Cal TRACON
Mon 10:52:12 PM 37.5000 -121.8333 253° West 217 250 8,400 -730 Descending Northern Cal TRACON
Mon 10:53:12 PM 37.4833 -121.9000 288° West 198 228 7,700 -850 Descending Northern Cal TRACON
Mon 10:54:12 PM 37.5000 -121.9667 270° West 189 217 6,700 -992 Descending Northern Cal TRACON
Mon 10:55:13 PM 37.5000 -122.0333 270° West 168 193 5,700 -1,033 Descending Northern Cal TRACON
Mon 10:56:14 PM 37.5000 -122.0833 288° West 177 204 4,600 -1,041 Descending Northern Cal TRACON
Mon 10:57:14 PM 37.5167 -122.1500 310° West 177 204 3,600 -857 Descending Northern Cal TRACON
Mon 10:58:20 PM 37.5500 -122.2000 293° West 168 193 2,800 -803 Descending Northern Cal TRACON
Mon 10:59:21 PM 37.5667 -122.2500 293° West 145 167 1,900 -885 Descending Northern Cal TRACON

Login

Don't have an account? Register now (free) for customized features, flight alerts, and more!